My Meet Scores
Amanda Marcucci, Gymkhana Gymnastics Club and Dance Studio - MyMeetScores.com
Top100 | Top Teams | Upcoming Meets | Completed Meets | Latest | Add Scores | Help| Support | Bookmark and Share

Amanda Marcucci, Gymkhana Gymnastics Club and Dance Studio
Personal Bests
LevelVault BarsBeamFloorAA
39.1508.450 7.8758.70033.350
48.8508.725 8.3758.67534.425
59.0007.675 7.1258.40031.500
69.0009.000 8.6758.87535.225
79.1008.150 8.5258.32533.625
Meet Scores
Date Meet Team Session Level Division Vault Bars Beam Floor AA
2020-02-21 Kinetic Classic Gymkhana Gymnastics Club and Dance Studio 02 7 Older 8.825 25T 8.150 42T 7.225 45 8.325 44 32.525 43
2020-01-24 King Arthur Invitational Gymkhana Gymnastics Club and Dance Studio 2 7 SR B 9.100 2 7.875 9 8.525 9 8.125 9 33.625 9
2020-01-10 St Jude Benefit Meet Gymkhana Gymnastics Club and Dance Studio 4B 7 Sr B 8.625 15 7.900 15 7.150 18 0.000 18 23.675 18
2019-03-15 Illinois State Championship Level 6,9,10 The Gymnastics Shop 8 6 Sr G 8.850 15T 9.000 7 8.675 13T 8.700 21 35.225 15
2019-02-23 Kinetic Classic 2019 The Gymnastics Shop 1 6 Older 8.950 3 8.750 9 8.400 8 8.875 10 34.975 7
2019-02-08 IGI Chicago Style 2019 The Gymnastics Shop 25 6 122 State L6 C 8.700 9 8.800 8 8.075 15 8.200 20 33.775 14
2018-11-30 Ultimate Wish Classic The Gymnastics Shop 1 6 SR 9.000 9T 7.900 14T 8.300 11 8.200 18 33.400 15
2018-02-17 Women's Midwest Open The Gymnastics Shop 01 5 Sr B 8.300 12 7.675 13 7.125 14 8.400 4 31.500 14
2017-11-10 Illinois NAWGJ Judges Cup 2017 The Gymnastics Shop G5 5 All Ages 9.000 25T 6.450 62 7.000 61 8.100 53T 30.550 62
2017-10-27 M&M's Pixie Dust Invitational The Gymnastics Shop 3 5 13+ yrs. 8.300 4T 6.750 6 6.550 7 7.675 5 29.275 6
2017-02-10 IGI Chicago Style Gymnastics Meet The Gymnastics Shop 523W 5 Sr 8.350 18 7.350 15 0.000 9 0.000 9 15.700 17
2017-01-13 Legacy Elite Winter Classic The Gymnastics Shop A1 5 JrB 8.100 9 7.500 9 0.000 9 0.000 9 15.600 12
2016-12-15 2016 Hawaiian Pineapple Sanction The Gymnastics Shop 4A 5 Ages 12+ 8.625 16 7.250 13T 0.000 19 0.000 18T 15.875 18
2016-12-02 Ultimate Wish Classic The Gymnastics Shop 4 5 Sr B 8.500 12 7.650 11 0.000 17 0.000 17 16.150 17
2016-03-10 2016 Illinois Level 4 State Meet The Gymnastics Shop All 4 Sr-F 8.850 6 8.725 13 8.000 29 8.450 25 34.025 16
2016-02-12 Midwest Twisters Harley Meet The Gymnastics Shop o10 4 12+ yrs 8.850 1 8.525 3 8.375 5 8.675 5 34.425 3
2016-01-08 Legacy Elite Winter Classic The Gymnastics Shop 7B 4 Jr B 8.400 5T 7.400 11 8.000 15 8.125 14 31.925 13T
2015-12-04 2015 Ultimate Wish Classic The Gymnastics Shop 10A 4 All 8.350 41 8.000 56 8.275 55 8.000 54 32.625 55
2015-02-13 IGI Chicago Style Gymnastics Meet The Gymnastics Shop 613 4 11 & Older 8.475 17T 7.000 30 8.050 27 7.950 30 31.475 30
2015-01-23 King Arthur Invitational The Gymnastics Shop 5 4 SrB 8.050 17 7.750 17 7.750 17 7.500 16 31.050 15
2015-01-09 Legacy Elite Winter Classic 2015 The Gymnastics Shop 7A 4 Jr C 8.175 10 7.200 9 8.300 10 0.000 10 23.675 10
2014-03-07 Illinois Level 3 State Meet The Gymnastics Shop 5 3 Sr D 9.050 32 8.450 31 7.450 35 8.400 31 33.350 34
2014-02-15 BIG Dream Classic 2014 The Gymnastics Shop 4A 3 Junior B 9.050 5 7.700 10 7.875 8 8.700 7 33.325 7
2014-02-07 IGI Chicago Style Gymnastics Meet The Gymnastics Shop 232 3 10 & Over 9.150 19T 7.200 21 7.600 21 8.225 21 32.175 21
2013-12-19 2013 Hawaiian Pineapple Classic The Gymnastics Shop A5 3 10+ 9.025 7 7.050 13 7.650 12 8.025 13 31.750 12
Get your scores on
a t-shirt, pin, or hoodie

www.lazysuits.com